Terminal Aerodrome Forecast
Issued by NWS

Home | Current Version | Previous Version | Text Only | Print | Product List | Glossary On
Versions: 1 2 3 4 5 6 7 8 9 10 11 12 13 14
472
FTUS43 KICT 031753 AAA
TAFRSL
TAF AMD
KRSL 031753Z 0318/0418 09005KT 1 1/2SM -RASN OVC003
     FM032200 12004KT 3SM -RASN OVC008
     FM040000 12004KT 2SM -SN OVC003
     FM040300 18004KT 1SM -SN OVC003
     FM040600 23005KT P6SM BKN003
     FM041400 29007KT P6SM FEW080=

USA.gov is the U.S. government's official web portal to all federal, state and local government web resources and services.